Aeroporto :
LOGIN :

Iscrizione | Disclaimer

   EN    FR    IT 

 










Sommario :    VFR   VFR Marginale   IFR   IFR Intensivo   IFR Molto Intensivo
Visibilità : 
Base nubi : 
>= 8 km
>= 3000ft
5 / 8 km
1000 / 3000 ft
1500m / 5 km
500 / 1000 ft
800 / 1500m
200 / 500 ft
< 800m
< 200 ft
Simboli :   Temporali  Nebbia  Neve Forte  Precipitazioni Forti  Vento > 20 kt
SIGMETs :   Varie  Temporali  Ghiacco  Turbolenza  Onda orograficha  Ceneri Vulcaniche






- Altitudine del aeroporto : 13 ft
- Codice IATA : OST


EBOS - Oostend bruges Int.

ULTIMO METAR :
  • 200050Z 02003KT 9999 FEW022 02/01 Q1048 NOSIG

METARs OBSOLETI :
  • 200020Z 02001KT 9999 FEW022 04/02 Q1048 NOSIG
  • 192350Z 05003KT 9999 FEW022 05/02 Q1048 NOSIG
  • 192320Z 03004KT 9999 FEW034 04/02 Q1048 NOSIG
  • 192250Z 03003KT 9999 FEW020 05/02 Q1048 NOSIG
  • 192220Z 03004KT 9999 FEW020 05/02 Q1048 NOSIG

TAF TAF EBOS
Valido dal 20 a 00 ore il 21 a 06 ore UTC


192304Z 2000/2106 02004KT 9999 FEW020
BECMG 2019/2022 3500 BR
BECMG 2022/2024 1200 BCFG
PROB40
TEMPO 2100/2106 0400 FG FZFG BKN001



MetMap, La meteo Aeronautica in un colpo d'occhio ! - Copyright ORBIFLY Dicembre 2007 - Disclaimer

ORBIFLY MET'MAP TEAM :

Programmazione e sviluppo : Alexandra Zaïnal
Concezione : Baudouin d'Aumeries
Aiuto per la programmazione : Marc-Olivier Méhu
Supporto tecnico e logistico : Manuel Goepfert
Aiuto per la traduzione : Arnaldo La Scala

Contatto : metmap@orbifly.com




FONTI E CREDITI :

   NOAA